sim
Sign-in with your pilot id or email,
or register
Callsign
Passwort

Schedule Details

Flight Number: DLH1629 (1)
Departure: Lodz Wladyslaw Reymont Airport (EPLL) at 11:45
Arrival: Munich Airport (EDDM) at 13:10
Route: Lufthansa Passenger Schedule. Enter filed route here before submitting Pirep.

Weather Information
Getting current METAR information for EPLL 240700Z VRB03KT CAVOK 17/14 Q1007
Getting current METAR information for EDDM 240720Z 24008KT 9999 FEW035 BKN080 15/13 Q1010 NOSIG

Schedule Frequency

Route Map